Time;durP1;ratioP1;P1;durP2;ratioP2;P2;SDS_P1;SDS_P2;PMS_P1;PMS_P2;Temp;Humidity;BMP_temperature;BMP_pressure;BME280_temperature;BME280_humidity;BME280_pressure;Samples;Min_cycle;Max_cycle;Signal;HPM_P1;HPM_P2
2022/07/09 00:01:38;;;;;;;15.88;7.72;;;;;;;17.64;100.00;102698.88;5176515;27;20038;-58
2022/07/09 00:04:06;;;;;;;13.27;7.00;;;;;;;17.57;100.00;102694.00;5175903;27;20061;-49
2022/07/09 00:06:34;;;;;;;13.45;7.30;;;;;;;17.45;100.00;102693.91;5172280;27;20050;-50
2022/07/09 00:09:02;;;;;;;18.05;7.85;;;;;;;17.53;100.00;102700.47;5174364;27;20073;-51
2022/07/09 00:11:31;;;;;;;14.68;6.97;;;;;;;17.52;100.00;102695.22;5172034;27;20045;-52
2022/07/09 00:13:59;;;;;;;14.23;6.78;;;;;;;17.52;100.00;102695.22;5176418;27;20066;-58
2022/07/09 00:16:29;;;;;;;13.77;7.30;;;;;;;17.52;100.00;102690.78;5176319;27;20515;-53
2022/07/09 00:18:57;;;;;;;13.88;7.43;;;;;;;17.50;100.00;102697.13;5175626;27;20099;-57
2022/07/09 00:21:25;;;;;;;13.13;7.18;;;;;;;17.47;100.00;102692.03;5172600;27;20058;-53
2022/07/09 00:23:53;;;;;;;15.40;6.63;;;;;;;17.33;100.00;102693.78;5173551;27;20121;-58
2022/07/09 00:26:21;;;;;;;12.73;7.10;;;;;;;17.29;100.00;102697.59;5172741;27;20053;-58
2022/07/09 00:28:49;;;;;;;13.07;7.25;;;;;;;17.29;100.00;102700.25;5172438;27;20099;-53
2022/07/09 00:31:17;;;;;;;13.07;7.05;;;;;;;17.25;100.00;102698.75;5175218;27;20061;-58
2022/07/09 00:33:46;;;;;;;13.68;7.10;;;;;;;17.26;100.00;102704.91;5175617;27;20520;-58
2022/07/09 00:36:14;;;;;;;15.65;7.43;;;;;;;17.20;100.00;102712.31;5175858;27;20434;-57
2022/07/09 00:38:42;;;;;;;13.45;6.85;;;;;;;17.21;100.00;102707.84;5173482;27;20125;-57
2022/07/09 00:41:10;;;;;;;14.80;6.70;;;;;;;17.15;100.00;102706.44;5131690;27;20043;-53
2022/07/09 00:43:39;;;;;;;12.55;7.25;;;;;;;17.09;100.00;102704.16;5172271;27;20552;-58
2022/07/09 00:46:07;;;;;;;15.73;8.05;;;;;;;17.09;100.00;102703.31;5175806;27;20121;-59
2022/07/09 00:48:35;;;;;;;10.73;6.45;;;;;;;17.05;100.00;102695.53;5173755;27;20049;-51
2022/07/09 00:51:06;;;;;;;12.95;6.57;;;;;;;17.04;100.00;102698.28;5172739;27;20426;-58
2022/07/09 00:53:34;;;;;;;11.93;6.72;;;;;;;17.00;100.00;102689.69;5174823;27;20049;-51
2022/07/09 00:56:03;;;;;;;12.55;6.75;;;;;;;17.05;100.00;102690.22;5175534;27;20445;-58
2022/07/09 00:58:32;;;;;;;12.57;6.38;;;;;;;17.04;100.00;102696.50;5175500;27;20042;-48
2022/07/09 01:01:01;;;;;;;10.80;6.88;;;;;;;17.06;100.00;102689.25;5175094;27;20094;-59
2022/07/09 01:03:30;;;;;;;11.05;6.72;;;;;;;17.06;100.00;102691.09;5175428;27;20362;-58
2022/07/09 01:05:58;;;;;;;12.55;6.93;;;;;;;17.04;100.00;102687.66;5175282;27;20137;-53
2022/07/09 01:08:27;;;;;;;13.40;6.90;;;;;;;17.08;100.00;102683.00;5173509;27;20042;-51
2022/07/09 01:10:55;;;;;;;16.65;7.22;;;;;;;16.93;100.00;102677.69;5171601;27;20438;-49
2022/07/09 01:13:24;;;;;;;11.38;6.85;;;;;;;16.94;100.00;102686.56;5173932;27;20053;-57
2022/07/09 01:15:52;;;;;;;11.70;6.65;;;;;;;16.91;100.00;102676.97;5173022;27;20083;-57
2022/07/09 01:18:20;;;;;;;12.02;7.25;;;;;;;16.90;100.00;102680.56;5173631;27;20053;-52
2022/07/09 01:20:49;;;;;;;10.90;6.88;;;;;;;16.86;100.00;102676.38;5174362;27;20042;-52
2022/07/09 01:23:18;;;;;;;13.15;7.38;;;;;;;16.88;100.00;102671.81;5156105;27;20038;-58
2022/07/09 01:25:47;;;;;;;15.32;7.75;;;;;;;16.85;100.00;102664.88;5174931;27;20463;-50
2022/07/09 01:28:15;;;;;;;12.85;7.13;;;;;;;16.81;100.00;102667.81;5175082;27;20050;-58
2022/07/09 01:30:43;;;;;;;10.00;6.88;;;;;;;16.84;100.00;102660.53;5175397;27;20046;-59
2022/07/09 01:33:12;;;;;;;12.30;7.22;;;;;;;16.85;100.00;102658.69;5153892;27;20094;-57
2022/07/09 01:35:40;;;;;;;14.13;7.78;;;;;;;16.80;100.00;102660.81;5154109;27;20513;-59
2022/07/09 01:38:10;;;;;;;12.65;7.25;;;;;;;16.72;100.00;102662.13;5154949;27;20106;-58
2022/07/09 01:40:38;;;;;;;12.88;6.70;;;;;;;16.80;100.00;102647.53;5171196;27;20477;-52
2022/07/09 01:43:06;;;;;;;10.10;7.05;;;;;;;16.77;100.00;102645.94;5172213;27;20380;-53
2022/07/09 01:45:34;;;;;;;12.93;7.25;;;;;;;16.69;100.00;102642.91;5174900;27;20057;-52
2022/07/09 01:48:02;;;;;;;12.10;7.75;;;;;;;16.62;100.00;102638.91;5174733;27;20042;-58
2022/07/09 01:50:30;;;;;;;11.23;7.53;;;;;;;16.58;100.00;102646.22;5174289;27;20054;-57
2022/07/09 01:52:58;;;;;;;12.75;7.47;;;;;;;16.60;100.00;102632.84;5174596;27;20108;-59
2022/07/09 01:55:28;;;;;;;12.88;7.75;;;;;;;16.57;100.00;102633.88;5174657;27;20043;-53
2022/07/09 01:57:56;;;;;;;13.60;7.97;;;;;;;16.46;100.00;102628.41;5174657;27;20073;-58
2022/07/09 02:00:24;;;;;;;12.25;8.02;;;;;;;16.43;100.00;102626.78;5174702;27;20042;-47
2022/07/09 02:02:52;;;;;;;12.43;7.70;;;;;;;16.42;100.00;102627.72;5174504;27;20105;-59
2022/07/09 02:05:20;;;;;;;11.30;7.72;;;;;;;16.37;100.00;102628.03;5156496;27;20043;-58
2022/07/09 02:07:48;;;;;;;11.05;7.90;;;;;;;16.35;100.00;102624.59;5173194;27;20074;-52
2022/07/09 02:10:17;;;;;;;11.48;7.65;;;;;;;16.34;100.00;102612.25;5170402;27;20046;-52
2022/07/09 02:12:46;;;;;;;13.35;9.40;;;;;;;16.39;100.00;102617.31;5172191;27;20503;-49
2022/07/09 02:15:14;;;;;;;16.10;10.43;;;;;;;16.37;100.00;102622.72;5155520;27;20046;-58
2022/07/09 02:17:42;;;;;;;14.18;10.20;;;;;;;16.29;100.00;102634.72;5172762;27;20046;-59
2022/07/09 02:20:11;;;;;;;14.88;10.05;;;;;;;16.13;100.00;102635.69;5172200;27;20065;-58
2022/07/09 02:22:39;;;;;;;15.88;11.45;;;;;;;16.11;100.00;102629.59;5174359;27;20074;-59
2022/07/09 02:25:09;;;;;;;15.77;11.30;;;;;;;16.04;100.00;102620.31;5152401;27;20134;-53
2022/07/09 02:27:37;;;;;;;14.82;10.02;;;;;;;15.73;100.00;102619.44;5171727;27;20046;-58
2022/07/09 02:30:07;;;;;;;17.05;10.27;;;;;;;15.72;100.00;102613.28;5174100;27;20046;-58
2022/07/09 02:32:38;;;;;;;14.93;9.48;;;;;;;15.69;100.00;102617.91;5175468;27;20046;-50
2022/07/09 02:35:07;;;;;;;13.52;9.05;;;;;;;15.75;100.00;102604.31;5178334;27;20050;-58
2022/07/09 02:37:35;;;;;;;14.52;9.18;;;;;;;15.66;100.00;102608.34;5178279;27;20050;-58
2022/07/09 02:40:04;;;;;;;12.70;8.80;;;;;;;15.68;100.00;102619.72;5178240;27;20042;-58
2022/07/09 02:42:32;;;;;;;12.88;8.60;;;;;;;15.74;100.00;102617.66;5177976;27;20085;-58
2022/07/09 02:45:00;;;;;;;15.82;9.43;;;;;;;15.77;100.00;102614.81;5175936;27;20042;-58
2022/07/09 02:47:29;;;;;;;13.57;9.52;;;;;;;15.68;100.00;102619.72;5177013;27;20050;-58
2022/07/09 02:49:57;;;;;;;13.45;9.10;;;;;;;15.64;100.00;102626.16;5178046;27;20441;-51
2022/07/09 02:52:25;;;;;;;15.30;9.32;;;;;;;15.70;100.00;102625.78;5177554;27;20061;-52
2022/07/09 02:54:53;;;;;;;14.32;9.18;;;;;;;15.67;100.00;102633.06;5177711;27;20042;-52
2022/07/09 02:57:22;;;;;;;13.88;9.48;;;;;;;15.60;100.00;102637.00;5159442;27;20082;-58
2022/07/09 02:59:50;;;;;;;16.48;9.45;;;;;;;15.67;100.00;102639.22;5177639;27;20048;-51
2022/07/09 03:02:18;;;;;;;12.27;8.52;;;;;;;15.61;100.00;102636.94;5177894;27;20070;-53
2022/07/09 03:04:48;;;;;;;13.68;8.88;;;;;;;15.62;100.00;102640.44;5177820;27;20063;-53
2022/07/09 03:07:16;;;;;;;15.27;9.07;;;;;;;15.54;100.00;102643.53;5177672;27;20042;-55
2022/07/09 03:09:44;;;;;;;14.63;9.98;;;;;;;15.40;100.00;102636.38;5159121;27;20062;-58
2022/07/09 03:12:12;;;;;;;15.70;10.15;;;;;;;15.36;100.00;102634.84;5173422;27;20050;-52
2022/07/09 03:14:40;;;;;;;16.52;10.32;;;;;;;15.35;100.00;102634.00;5175710;27;20038;-50
2022/07/09 03:17:08;;;;;;;17.20;9.95;;;;;;;15.36;100.00;102640.16;5177321;27;20048;-49
2022/07/09 03:19:36;;;;;;;16.15;10.00;;;;;;;15.33;100.00;102633.22;5177428;27;20034;-51
2022/07/09 03:22:06;;;;;;;15.25;9.65;;;;;;;15.34;100.00;102626.13;5192273;27;20041;-51
2022/07/09 03:24:34;;;;;;;16.88;9.70;;;;;;;15.38;100.00;102625.00;5160890;27;20045;-53
2022/07/09 03:27:02;;;;;;;17.52;11.02;;;;;;;15.42;100.00;102620.38;5173703;27;20069;-59
2022/07/09 03:29:30;;;;;;;14.85;9.43;;;;;;;15.49;100.00;102630.53;5175356;27;20081;-54
2022/07/09 03:31:58;;;;;;;15.43;9.38;;;;;;;15.49;100.00;102630.53;5173999;27;20042;-51
2022/07/09 03:34:26;;;;;;;16.75;9.48;;;;;;;15.51;100.00;102626.00;5154215;27;20046;-55
2022/07/09 03:36:54;;;;;;;14.52;9.55;;;;;;;15.63;100.00;102629.75;5177070;27;20046;-57
2022/07/09 03:39:23;;;;;;;12.32;8.77;;;;;;;15.57;100.00;102616.84;5176897;27;20136;-59
2022/07/09 03:41:51;;;;;;;15.52;9.73;;;;;;;15.57;100.00;102615.97;5177109;27;20042;-59
2022/07/09 03:44:19;;;;;;;13.32;8.93;;;;;;;15.60;100.00;102614.00;5175789;27;20387;-58
2022/07/09 03:46:47;;;;;;;13.55;8.82;;;;;;;15.67;100.00;102614.50;5176989;27;20050;-52
2022/07/09 03:49:16;;;;;;;14.60;8.75;;;;;;;15.69;100.00;102620.56;5173617;27;20092;-52
2022/07/09 03:52:04;;;;;;;13.80;8.45;;;;;;;15.69;100.00;102621.44;5174508;27;20050;-58
2022/07/09 03:54:48;;;;;;;14.13;7.60;;;;;;;15.74;100.00;102628.28;5177448;27;20062;-59
2022/07/09 03:57:16;;;;;;;13.50;7.95;;;;;;;15.74;100.00;102629.09;5157732;27;20042;-59
2022/07/09 03:59:44;;;;;;;13.23;7.60;;;;;;;15.78;100.00;102624.50;5173668;27;20048;-51
2022/07/09 04:02:12;;;;;;;14.20;7.80;;;;;;;15.79;100.00;102626.19;5172894;27;20038;-53
2022/07/09 04:04:41;;;;;;;11.25;7.22;;;;;;;15.84;100.00;102626.78;5175056;27;20489;-58
2022/07/09 04:07:09;;;;;;;12.73;7.50;;;;;;;15.87;100.00;102629.28;5173314;27;20046;-50
2022/07/09 04:09:37;;;;;;;13.63;7.68;;;;;;;15.91;100.00;102633.47;5175049;27;20034;-58
2022/07/09 04:12:08;;;;;;;11.43;7.95;;;;;;;15.94;100.00;102625.31;5176131;27;20523;-58
2022/07/09 04:14:36;;;;;;;14.90;8.80;;;;;;;16.00;100.00;102618.78;5172663;27;20500;-54
2022/07/09 04:17:05;;;;;;;11.98;8.18;;;;;;;16.03;100.00;102624.75;5175451;27;20065;-58
2022/07/09 04:19:33;;;;;;;13.23;8.25;;;;;;;16.05;100.00;102622.03;5176013;27;20038;-52
2022/07/09 04:22:02;;;;;;;13.65;9.35;;;;;;;16.11;100.00;102618.13;5175529;27;20500;-58
2022/07/09 04:24:30;;;;;;;14.52;8.88;;;;;;;16.17;100.00;102615.09;5175468;27;20536;-53
2022/07/09 04:26:58;;;;;;;12.77;8.95;;;;;;;16.17;100.00;102615.97;5174758;27;20648;-50
2022/07/09 04:29:28;;;;;;;13.57;8.65;;;;;;;16.20;100.00;102614.94;5154285;27;20057;-55
2022/07/09 04:31:56;;;;;;;12.98;8.50;;;;;;;16.19;100.00;102608.75;5174228;27;20652;-58
2022/07/09 04:34:24;;;;;;;12.57;8.50;;;;;;;16.25;100.00;102606.66;5175179;27;20069;-52
2022/07/09 04:36:52;;;;;;;12.93;8.10;;;;;;;16.28;100.00;102612.66;5175358;27;20045;-52
2022/07/09 04:39:20;;;;;;;12.80;8.15;;;;;;;16.31;100.00;102596.53;5176166;27;20069;-52
2022/07/09 04:41:48;;;;;;;14.10;8.05;;;;;;;16.37;100.00;102597.94;5175986;27;20042;-58
2022/07/09 04:44:16;;;;;;;12.98;8.27;;;;;;;16.39;100.00;102601.38;5175850;27;20130;-58
2022/07/09 04:46:46;;;;;;;11.82;8.90;;;;;;;16.36;100.00;102599.75;5175504;27;20099;-58
2022/07/09 04:49:14;;;;;;;13.73;8.65;;;;;;;16.37;100.00;102606.78;5175857;27;20504;-58
2022/07/09 04:51:42;;;;;;;12.27;8.35;;;;;;;16.38;100.00;102608.47;5175538;27;20042;-58
2022/07/09 04:54:10;;;;;;;12.90;8.15;;;;;;;16.45;100.00;102613.41;5175621;27;20114;-53
2022/07/09 04:56:38;;;;;;;15.32;8.90;;;;;;;16.45;100.00;102608.09;5174409;27;20046;-51
2022/07/09 04:59:06;;;;;;;13.18;9.02;;;;;;;16.45;100.00;102598.31;5175536;27;20038;-58
2022/07/09 05:01:34;;;;;;;15.25;9.80;;;;;;;16.48;100.00;102591.97;5175651;27;20049;-58
2022/07/09 05:04:04;;;;;;;14.23;8.48;;;;;;;16.49;100.00;102599.00;5175377;27;20111;-52
2022/07/09 05:06:32;;;;;;;15.57;9.35;;;;;;;16.53;100.00;102595.19;5174647;27;20103;-52
2022/07/09 05:09:00;;;;;;;15.52;9.20;;;;;;;16.57;100.00;102586.09;5171823;27;20050;-53
2022/07/09 05:11:28;;;;;;;15.35;9.48;;;;;;;16.61;100.00;102594.72;5173423;27;20121;-58
2022/07/09 05:13:56;;;;;;;12.95;8.57;;;;;;;16.65;100.00;102594.41;5173968;27;20048;-58
2022/07/09 05:16:24;;;;;;;13.13;9.10;;;;;;;16.68;100.00;102596.03;5172555;27;20054;-59
2022/07/09 05:18:52;;;;;;;12.82;9.38;;;;;;;16.78;100.00;102593.63;5174502;27;20050;-57
2022/07/09 05:21:21;;;;;;;16.30;9.48;;;;;;;16.83;100.00;102576.44;5174849;27;20126;-52
2022/07/09 05:23:49;;;;;;;20.60;11.10;;;;;;;16.86;100.00;102578.06;5175462;27;20046;-58
2022/07/09 05:26:17;;;;;;;15.95;10.82;;;;;;;16.90;100.00;102584.91;5174997;27;20045;-58
2022/07/09 05:28:46;;;;;;;15.82;10.77;;;;;;;16.95;100.00;102588.13;5174924;27;20034;-53
2022/07/09 05:31:14;;;;;;;19.10;12.05;;;;;;;17.01;100.00;102590.38;5174690;27;20038;-58
2022/07/09 05:34:01;;;;;;;17.55;12.38;;;;;;;17.07;100.00;102578.50;5156004;27;20046;-53
2022/07/09 05:36:31;;;;;;;19.40;11.90;;;;;;;17.09;100.00;102589.88;5174715;27;20105;-53
2022/07/09 05:38:59;;;;;;;17.52;12.73;;;;;;;17.10;100.00;102590.72;5174956;27;20098;-52
2022/07/09 05:41:28;;;;;;;17.02;11.88;;;;;;;17.13;100.00;102587.88;5156549;27;20041;-58
2022/07/09 05:43:56;;;;;;;16.95;11.25;;;;;;;17.22;100.00;102592.59;5174808;27;20069;-51
2022/07/09 05:46:24;;;;;;;16.13;11.63;;;;;;;17.32;100.00;102595.50;5173192;27;20103;-52
2022/07/09 05:48:52;;;;;;;20.05;12.80;;;;;;;17.40;100.00;102596.69;5171506;27;20855;-59
2022/07/09 05:51:20;;;;;;;18.63;13.02;;;;;;;17.50;100.00;102596.06;5155124;27;20106;-58
2022/07/09 05:53:50;;;;;;;17.25;11.20;;;;;;;17.61;100.00;102596.19;5174587;27;20053;-58
2022/07/09 05:56:18;;;;;;;17.70;11.18;;;;;;;17.71;100.00;102594.63;5174494;27;20042;-58
2022/07/09 05:58:46;;;;;;;20.15;12.02;;;;;;;17.78;100.00;102597.72;5175023;27;20484;-59
2022/07/09 06:01:14;;;;;;;17.50;11.38;;;;;;;17.89;100.00;102589.00;5173647;27;20047;-54
2022/07/09 06:03:43;;;;;;;17.15;10.70;;;;;;;18.03;100.00;102594.25;5170955;27;20049;-54
2022/07/09 06:06:11;;;;;;;16.38;11.18;;;;;;;18.13;100.00;102599.78;5173342;27;20057;-48
2022/07/09 06:08:39;;;;;;;17.48;10.63;;;;;;;18.19;100.00;102607.34;5178443;27;20054;-58
2022/07/09 06:11:09;;;;;;;16.50;10.45;;;;;;;18.31;100.00;102599.44;5179188;27;20042;-52
2022/07/09 06:13:37;;;;;;;18.05;10.05;;;;;;;18.42;100.00;102604.88;5178221;27;20042;-52
2022/07/09 06:16:06;;;;;;;18.17;10.55;;;;;;;18.47;100.00;102602.72;5178756;27;20122;-52
2022/07/09 06:18:34;;;;;;;15.00;9.50;;;;;;;18.50;100.00;102604.31;5177788;27;20053;-57
2022/07/09 06:21:03;;;;;;;14.05;8.63;;;;;;;18.50;100.00;102601.66;5177646;27;20073;-52
2022/07/09 06:23:31;;;;;;;13.68;8.07;;;;;;;18.61;100.00;102592.91;5177694;27;20054;-50
2022/07/09 06:25:59;;;;;;;15.50;7.88;;;;;;;18.72;100.00;102588.50;5178543;27;20504;-57
2022/07/09 06:28:28;;;;;;;11.90;7.28;;;;;;;18.83;100.00;102584.19;5177688;27;20042;-51
2022/07/09 06:30:56;;;;;;;12.57;7.47;;;;;;;18.95;100.00;102582.47;5159469;27;20052;-58
2022/07/09 06:33:24;;;;;;;13.70;7.57;;;;;;;19.04;100.00;102581.81;5178577;27;20081;-58
2022/07/09 06:35:52;;;;;;;14.15;9.23;;;;;;;19.09;100.00;102585.00;5178591;27;20451;-58
2022/07/09 06:38:20;;;;;;;15.77;8.68;;;;;;;19.12;100.00;102592.75;5178727;27;20054;-58
2022/07/09 06:40:48;;;;;;;15.32;8.93;;;;;;;19.22;100.00;102584.91;5178579;27;20047;-58
2022/07/09 06:43:16;;;;;;;10.88;7.07;;;;;;;19.31;100.00;102592.22;5178589;27;20062;-59
2022/07/09 06:45:46;;;;;;;10.63;6.28;;;;;;;19.41;100.00;102587.91;5176021;27;20042;-58
2022/07/09 06:48:14;;;;;;;11.68;5.45;;;;;;;19.50;100.00;102590.84;5176931;27;20042;-58
2022/07/09 06:50:42;;;;;;;10.23;6.10;;;;;;;19.53;99.80;102586.13;5177887;27;20042;-51
2022/07/09 06:53:10;;;;;;;9.57;5.03;;;;;;;19.66;99.12;102590.50;5177954;27;20042;-52
2022/07/09 06:55:38;;;;;;;10.45;5.80;;;;;;;19.73;99.16;102597.94;5175165;27;20055;-58
2022/07/09 06:58:06;;;;;;;10.80;5.57;;;;;;;19.84;97.92;102598.97;5175434;27;20111;-52
2022/07/09 07:00:34;;;;;;;11.77;5.38;;;;;;;19.88;97.44;102595.94;5176893;27;20045;-51
2022/07/09 07:03:04;;;;;;;9.40;5.32;;;;;;;19.96;95.33;102594.50;5177923;27;20071;-57
2022/07/09 07:05:32;;;;;;;9.98;5.20;;;;;;;19.91;96.01;102595.69;5177059;27;20098;-53
2022/07/09 07:08:00;;;;;;;9.90;4.75;;;;;;;19.98;95.17;102582.72;5176461;27;20050;-57
2022/07/09 07:10:28;;;;;;;11.48;5.25;;;;;;;20.11;95.31;102585.31;5172389;27;20102;-51
2022/07/09 07:12:56;;;;;;;9.82;4.88;;;;;;;20.34;94.66;102579.94;5177090;27;20066;-57
2022/07/09 07:15:24;;;;;;;7.85;4.30;;;;;;;20.58;93.32;102582.47;5177378;27;20077;-50
2022/07/09 07:17:52;;;;;;;7.65;4.63;;;;;;;20.76;92.25;102586.38;5174240;27;20110;-53
2022/07/09 07:20:26;;;;;;;8.35;4.63;;;;;;;20.75;90.01;102594.50;5174993;27;20038;-56
2022/07/09 07:22:55;;;;;;;8.07;4.63;;;;;;;20.97;89.46;102593.59;5175668;27;20058;-53
2022/07/09 07:25:23;;;;;;;8.75;4.75;;;;;;;21.07;89.46;102583.00;5172713;27;20570;-51
2022/07/09 07:27:51;;;;;;;9.65;3.75;;;;;;;21.26;87.68;102577.81;5176210;27;20106;-51
2022/07/09 07:30:19;;;;;;;7.78;3.90;;;;;;;21.44;86.14;102582.59;5173505;27;20042;-51
2022/07/09 07:32:47;;;;;;;8.05;4.13;;;;;;;21.57;86.41;102585.97;5175136;27;20423;-49
2022/07/09 07:35:15;;;;;;;7.95;4.25;;;;;;;21.75;85.65;102575.50;5177058;27;20049;-58
2022/07/09 07:37:44;;;;;;;7.95;4.10;;;;;;;21.91;84.29;102583.06;5158511;27;20052;-52
2022/07/09 07:40:13;;;;;;;9.05;4.32;;;;;;;21.98;83.98;102586.06;5176583;27;20437;-57
2022/07/09 07:42:41;;;;;;;7.18;3.88;;;;;;;21.91;82.51;102582.19;5177086;27;20061;-53
2022/07/09 07:45:10;;;;;;;8.75;3.90;;;;;;;22.08;82.08;102584.25;5172111;27;20099;-54
2022/07/09 07:47:38;;;;;;;8.23;4.07;;;;;;;22.16;80.94;102580.09;5171864;27;20464;-51
2022/07/09 07:50:07;;;;;;;7.43;3.38;;;;;;;22.33;80.15;102590.13;5174994;27;20098;-58
2022/07/09 07:52:36;;;;;;;7.80;4.28;;;;;;;22.33;79.54;102576.75;5176542;27;20511;-53
2022/07/09 07:55:06;;;;;;;7.93;3.55;;;;;;;22.31;79.31;102576.03;5175911;27;20038;-53
2022/07/09 07:57:34;;;;;;;8.98;4.30;;;;;;;22.49;79.58;102572.75;5175696;27;20504;-51
2022/07/09 08:00:02;;;;;;;8.07;4.07;;;;;;;22.69;82.04;102563.75;5176032;27;20042;-57
2022/07/09 08:02:30;;;;;;;9.15;4.72;;;;;;;22.96;79.20;102563.09;5171470;27;20492;-53
2022/07/09 08:04:58;;;;;;;8.05;4.55;;;;;;;23.05;78.46;102560.53;5172853;27;20122;-57
2022/07/09 08:07:27;;;;;;;9.70;4.50;;;;;;;22.89;77.77;102566.47;5174604;27;20117;-51
2022/07/09 08:09:55;;;;;;;7.00;4.10;;;;;;;22.99;76.89;102553.91;5171575;27;20556;-57
2022/07/09 08:12:24;;;;;;;9.07;4.10;;;;;;;23.30;77.03;102556.47;5171099;27;20057;-52
2022/07/09 08:14:52;;;;;;;9.98;5.88;;;;;;;23.42;76.60;102541.91;5174792;27;20384;-54
2022/07/09 08:17:20;;;;;;;8.63;4.68;;;;;;;23.55;76.00;102536.22;5169327;27;20046;-57
2022/07/09 08:19:48;;;;;;;8.07;4.40;;;;;;;23.77;76.02;102539.56;5172276;27;20820;-57
2022/07/09 08:22:16;;;;;;;10.93;5.22;;;;;;;23.97;74.11;102540.38;5172465;27;20046;-58
2022/07/09 08:24:44;;;;;;;9.50;4.25;;;;;;;23.91;73.88;102540.94;5171355;27;20030;-52
2022/07/09 08:27:12;;;;;;;9.32;4.85;;;;;;;23.92;72.62;102540.81;5170169;27;20056;-57
2022/07/09 08:29:43;;;;;;;8.55;4.95;;;;;;;23.68;73.66;102535.91;5174149;27;20079;-57
2022/07/09 08:32:11;;;;;;;9.13;4.50;;;;;;;24.00;74.78;102536.56;5172824;27;20094;-52
2022/07/09 08:34:39;;;;;;;8.38;4.05;;;;;;;24.02;71.13;102530.00;5171902;27;20488;-49
2022/07/09 08:37:07;;;;;;;7.88;3.55;;;;;;;24.02;71.00;102527.31;5175385;27;20106;-52
2022/07/09 08:39:35;;;;;;;6.72;3.33;;;;;;;24.22;72.72;102538.81;5155245;27;20043;-51
2022/07/09 08:42:04;;;;;;;7.55;3.63;;;;;;;24.00;69.60;102533.88;5155169;27;20046;-57
2022/07/09 08:44:37;;;;;;;6.50;3.05;;;;;;;24.08;71.76;102526.75;5159036;27;20057;-56
2022/07/09 08:47:08;;;;;;;5.45;2.80;;;;;;;24.09;70.99;102530.25;5171236;27;20485;-50
2022/07/09 08:49:37;;;;;;;9.00;3.38;;;;;;;24.32;70.39;102519.94;5172271;27;20099;-56
2022/07/09 08:52:07;;;;;;;6.47;2.78;;;;;;;24.43;70.09;102525.13;5151654;27;20477;-51
2022/07/09 08:54:37;;;;;;;7.00;3.65;;;;;;;24.27;68.31;102528.47;5153666;27;20250;-56
2022/07/09 08:57:06;;;;;;;6.35;3.08;;;;;;;24.57;70.58;102528.28;5152625;27;20450;-56
2022/07/09 08:59:34;;;;;;;6.60;3.60;;;;;;;24.47;69.61;102531.03;5152135;27;20043;-56
2022/07/09 09:02:05;;;;;;;6.90;3.20;;;;;;;24.59;70.40;102524.44;5141438;27;20066;-52
2022/07/09 09:04:35;;;;;;;7.85;3.22;;;;;;;24.86;68.93;102527.28;5175173;27;20050;-57
2022/07/09 09:07:13;;;;;;;7.30;3.55;;;;;;;25.04;68.69;102530.78;5173980;27;20034;-57
2022/07/09 09:09:41;;;;;;;6.50;3.53;;;;;;;24.89;67.16;102519.72;5172287;27;20046;-57
2022/07/09 09:12:10;;;;;;;6.65;3.05;;;;;;;25.02;67.18;102513.97;5171867;27;20038;-56
2022/07/09 09:14:38;;;;;;;7.75;3.15;;;;;;;25.10;67.52;102515.84;5175230;27;20046;-48
2022/07/09 09:17:09;;;;;;;8.38;3.85;;;;;;;24.68;67.31;102516.50;5175356;27;20046;-56
2022/07/09 09:19:38;;;;;;;7.35;3.92;;;;;;;24.75;68.19;102512.22;5174849;27;20110;-56
2022/07/09 09:22:08;;;;;;;7.25;4.22;;;;;;;24.23;69.06;102523.56;5175241;27;20046;-48
2022/07/09 09:24:37;;;;;;;7.90;3.90;;;;;;;24.27;69.25;102512.34;5174917;27;20070;-50
2022/07/09 09:27:05;;;;;;;9.20;3.97;;;;;;;24.25;70.25;102519.72;5174319;27;20821;-55
2022/07/09 09:29:39;;;;;;;8.65;4.68;;;;;;;24.05;71.52;102510.94;5174989;27;20092;-50
2022/07/09 09:32:11;;;;;;;10.40;4.80;;;;;;;23.90;71.71;102517.75;5174281;27;20094;-57
2022/07/09 09:34:41;;;;;;;8.90;5.15;;;;;;;23.81;71.83;102514.09;5174179;27;20445;-50
2022/07/09 09:37:10;;;;;;;8.55;5.22;;;;;;;23.76;71.82;102517.25;5174269;27;20035;-52
2022/07/09 09:39:38;;;;;;;9.32;5.93;;;;;;;23.87;71.41;102518.03;5174703;27;20137;-56
2022/07/09 09:42:10;;;;;;;10.63;6.22;;;;;;;24.01;71.69;102522.97;5173504;27;20092;-55
2022/07/09 09:44:41;;;;;;;9.30;6.97;;;;;;;23.88;70.94;102522.41;5175296;27;20064;-57
2022/07/09 09:47:10;;;;;;;10.45;5.88;;;;;;;23.83;72.75;102527.38;5173709;27;20045;-52
2022/07/09 09:49:39;;;;;;;11.75;7.10;;;;;;;23.76;72.97;102527.97;5174749;27;20537;-56
2022/07/09 09:52:10;;;;;;;11.63;7.93;;;;;;;23.57;72.55;102528.03;5175189;27;20414;-52
2022/07/09 09:54:39;;;;;;;10.80;7.53;;;;;;;23.66;73.22;102532.53;5173213;27;20053;-56
2022/07/09 09:57:09;;;;;;;10.80;8.38;;;;;;;23.69;72.03;102524.16;5169444;27;20145;-49
2022/07/09 09:59:39;;;;;;;11.40;7.80;;;;;;;23.81;73.39;102519.47;5173784;27;20042;-55
2022/07/09 10:02:09;;;;;;;10.30;7.50;;;;;;;23.69;73.32;102521.47;5174804;27;20042;-51
2022/07/09 10:04:37;;;;;;;10.95;8.15;;;;;;;23.64;73.00;102521.06;5171873;27;20568;-55
2022/07/09 10:07:08;;;;;;;11.27;7.88;;;;;;;23.54;72.91;102531.00;5172114;27;20069;-57
2022/07/09 10:09:36;;;;;;;10.82;8.02;;;;;;;23.60;72.85;102527.72;5174443;27;20102;-56
2022/07/09 10:12:05;;;;;;;10.82;7.38;;;;;;;23.77;72.44;102518.06;5174320;27;20121;-57
2022/07/09 10:14:34;;;;;;;8.75;5.70;;;;;;;24.01;72.46;102520.28;5174515;27;20042;-56
2022/07/09 10:17:14;;;;;;;8.63;6.53;;;;;;;24.17;71.33;102519.59;5171157;27;20114;-52
2022/07/09 10:19:53;;;;;;;10.38;6.32;;;;;;;23.94;71.46;102519.16;5172017;27;20050;-57
2022/07/09 10:22:23;;;;;;;9.98;6.07;;;;;;;23.81;72.06;102524.84;5174706;27;20401;-52
2022/07/09 10:24:53;;;;;;;11.07;5.35;;;;;;;23.87;72.58;102529.63;5174555;27;20740;-56
2022/07/09 10:27:21;;;;;;;7.10;4.25;;;;;;;23.68;69.98;102529.69;5174027;27;20038;-50
2022/07/09 10:29:54;;;;;;;8.57;4.20;;;;;;;23.85;71.00;102530.78;5174175;27;20042;-51
2022/07/09 10:32:27;;;;;;;6.30;3.70;;;;;;;23.77;70.00;102531.50;5155792;27;20061;-53
2022/07/09 10:34:58;;;;;;;7.22;3.38;;;;;;;23.78;69.36;102531.34;5174326;27;20050;-54
2022/07/09 10:37:35;;;;;;;4.75;2.80;;;;;;;24.00;67.05;102523.94;5174348;27;20129;-49
2022/07/09 10:40:14;;;;;;;6.38;3.17;;;;;;;24.12;67.27;102528.13;5174250;27;20035;-52
2022/07/09 10:42:44;;;;;;;6.07;3.05;;;;;;;24.48;66.15;102522.81;5172815;27;20706;-56
2022/07/09 10:45:23;;;;;;;5.78;2.30;;;;;;;24.98;64.24;102523.34;5170662;27;20072;-56
2022/07/09 10:47:53;;;;;;;5.40;2.70;;;;;;;25.26;63.27;102521.34;5173093;27;20060;-57
2022/07/09 10:50:21;;;;;;;4.50;1.70;;;;;;;25.05;60.89;102524.41;5174336;27;20042;-57
2022/07/09 10:52:51;;;;;;;4.28;2.10;;;;;;;25.16;61.55;102519.78;5174302;27;20047;-51
2022/07/09 10:55:20;;;;;;;3.58;1.40;;;;;;;25.57;61.15;102523.63;5178086;27;20054;-50
2022/07/09 10:57:49;;;;;;;5.25;1.42;;;;;;;25.73;58.37;102522.88;5175648;27;20069;-57
2022/07/09 11:00:19;;;;;;;4.47;1.80;;;;;;;25.60;56.73;102511.69;5174027;27;20046;-53
2022/07/09 11:02:55;;;;;;;3.42;1.27;;;;;;;25.97;57.63;102511.38;5176854;27;20045;-56
2022/07/09 11:05:24;;;;;;;3.42;1.30;;;;;;;25.92;56.27;102516.41;5177857;27;20472;-56
2022/07/09 11:08:02;;;;;;;2.75;1.38;;;;;;;26.19;55.61;102511.84;5177785;27;20109;-50
2022/07/09 11:10:31;;;;;;;4.00;1.40;;;;;;;26.21;55.44;102509.81;5177603;27;20476;-57
2022/07/09 11:13:00;;;;;;;3.03;1.20;;;;;;;25.97;55.10;102503.31;5177533;27;20106;-57
2022/07/09 11:15:30;;;;;;;2.35;1.30;;;;;;;25.86;53.26;102502.75;5174718;27;20046;-51
2022/07/09 11:17:59;;;;;;;2.88;1.42;;;;;;;26.28;53.40;102504.59;5175448;27;20038;-56
2022/07/09 11:20:28;;;;;;;2.78;1.30;;;;;;;25.75;54.38;102506.56;5177139;27;20046;-57
2022/07/09 11:22:57;;;;;;;2.55;1.30;;;;;;;25.60;56.35;102500.91;5176906;27;20050;-57